createdAt,value
2019-04-30T00:00:18.861Z,51.08
2019-04-30T00:01:18.984Z,54.30
2019-04-30T00:02:19.235Z,50.60
2019-04-30T00:03:19.638Z,50.76
2019-04-30T00:04:19.538Z,57.20
2019-04-30T00:05:19.241Z,60.42
2019-04-30T00:06:18.901Z,49.95
2019-04-30T00:07:19.339Z,49.79
2019-04-30T00:08:20.306Z,51.40
2019-04-30T00:09:19.421Z,77.99
2019-04-30T00:10:19.572Z,54.62
2019-04-30T00:11:19.738Z,49.95
2019-04-30T00:12:19.882Z,81.05
2019-04-30T00:13:21.014Z,56.07
2019-04-30T00:14:21.300Z,51.08
2019-04-30T00:15:20.404Z,50.43
2019-04-30T00:16:20.583Z,50.60
2019-04-30T00:17:20.752Z,53.50
2019-04-30T00:18:20.883Z,55.75
2019-04-30T00:19:21.081Z,56.72
2019-04-30T00:20:21.284Z,58.33
2019-04-30T00:21:21.460Z,73.32
2019-04-30T00:22:33.064Z,50.92
2019-04-30T00:23:29.299Z,52.85
2019-04-30T00:24:23.060Z,55.11
2019-04-30T00:25:24.896Z,51.08
2019-04-30T00:26:25.324Z,62.68
2019-04-30T00:27:28.396Z,53.17
2019-04-30T00:28:25.562Z,49.95
2019-04-30T00:29:27.091Z,51.08
2019-04-30T00:30:25.282Z,77.34
2019-04-30T00:31:25.676Z,55.27
2019-04-30T00:32:25.803Z,51.24
2019-04-30T00:33:27.487Z,51.08
2019-04-30T00:34:24.965Z,50.27
2019-04-30T00:35:25.410Z,50.92
2019-04-30T00:36:29.354Z,59.46
2019-04-30T00:37:27.238Z,50.92
2019-04-30T00:38:25.256Z,50.43
2019-04-30T00:39:27.090Z,78.31
2019-04-30T00:40:29.786Z,54.79
2019-04-30T00:41:25.977Z,52.37
2019-04-30T00:42:28.642Z,82.02
2019-04-30T00:43:25.739Z,55.27
2019-04-30T00:44:28.345Z,76.54
2019-04-30T00:45:26.679Z,55.43
2019-04-30T00:46:29.370Z,61.07
2019-04-30T00:47:26.030Z,59.30
2019-04-30T00:48:29.620Z,61.55
2019-04-30T00:49:29.238Z,52.53
2019-04-30T00:50:29.047Z,51.56
2019-04-30T00:51:27.724Z,60.10
2019-04-30T00:52:29.443Z,73.32
2019-04-30T00:53:29.201Z,57.20
2019-04-30T00:54:30.628Z,50.60
2019-04-30T00:55:27.757Z,58.97
2019-04-30T00:56:28.346Z,63.49
2019-04-30T00:57:29.078Z,51.72
2019-04-30T00:58:30.232Z,52.69
2019-04-30T00:59:29.418Z,57.04
2019-04-30T01:00:29.721Z,57.36
2019-04-30T01:01:29.898Z,53.50
2019-04-30T01:02:32.301Z,54.95
2019-04-30T01:03:30.390Z,73.96
2019-04-30T01:04:30.257Z,54.62
2019-04-30T01:05:29.755Z,59.62
2019-04-30T01:06:29.954Z,76.22
2019-04-30T01:07:30.101Z,62.04
2019-04-30T01:08:30.247Z,81.21
2019-04-30T01:09:31.254Z,53.66
2019-04-30T01:10:30.647Z,52.05
2019-04-30T01:11:30.786Z,54.62
2019-04-30T01:12:36.490Z,56.24
2019-04-30T01:13:33.157Z,53.33
2019-04-30T01:14:32.148Z,55.43
2019-04-30T01:15:32.454Z,56.56
2019-04-30T01:16:33.089Z,55.11
2019-04-30T01:17:32.870Z,54.46
2019-04-30T01:18:33.109Z,59.14
2019-04-30T01:19:33.046Z,60.10
2019-04-30T01:20:33.512Z,55.11
2019-04-30T01:21:32.638Z,56.07
2019-04-30T01:22:33.046Z,58.49
2019-04-30T01:23:33.986Z,58.81
2019-04-30T01:24:33.745Z,72.99
2019-04-30T01:25:33.394Z,50.76
2019-04-30T01:26:34.239Z,58.01
2019-04-30T01:27:33.726Z,51.56
2019-04-30T01:28:33.896Z,51.56
2019-04-30T01:29:40.791Z,77.99
2019-04-30T01:30:35.225Z,51.56
2019-04-30T01:31:37.428Z,59.94
2019-04-30T01:32:36.587Z,58.97
2019-04-30T01:33:35.732Z,53.17
2019-04-30T01:34:34.991Z,52.05
2019-04-30T01:35:35.747Z,49.47
2019-04-30T01:36:35.426Z,77.34
2019-04-30T01:37:35.576Z,65.10
2019-04-30T01:38:35.730Z,79.76
2019-04-30T01:39:35.879Z,54.62
2019-04-30T01:40:36.023Z,65.10
2019-04-30T01:41:36.199Z,58.81
2019-04-30T01:42:36.341Z,58.49
2019-04-30T01:43:36.499Z,73.80
2019-04-30T01:44:36.640Z,53.66
2019-04-30T01:45:38.587Z,61.55
2019-04-30T01:46:39.006Z,57.04
2019-04-30T01:47:37.186Z,81.05
2019-04-30T01:48:39.197Z,74.93
2019-04-30T01:49:42.867Z,60.42
2019-04-30T01:50:42.083Z,56.07
2019-04-30T01:51:38.686Z,62.36
2019-04-30T01:52:41.135Z,79.76
2019-04-30T01:53:38.687Z,57.85
2019-04-30T01:54:39.407Z,57.52
2019-04-30T01:55:39.034Z,56.40
2019-04-30T01:56:40.749Z,50.43
2019-04-30T01:57:39.056Z,51.40
2019-04-30T01:58:40.107Z,59.78
2019-04-30T01:59:39.364Z,57.69
2019-04-30T02:00:39.530Z,73.80
2019-04-30T02:01:39.715Z,61.23
2019-04-30T02:02:39.905Z,59.78
2019-04-30T02:03:40.211Z,62.20
2019-04-30T02:04:41.290Z,60.75
2019-04-30T02:05:40.440Z,66.87
2019-04-30T02:06:40.599Z,75.57
2019-04-30T02:07:41.749Z,62.20
2019-04-30T02:08:41.004Z,58.65
2019-04-30T02:09:41.759Z,62.20
2019-04-30T02:10:42.245Z,71.87
2019-04-30T02:11:41.627Z,60.42
2019-04-30T02:12:41.806Z,60.91
2019-04-30T02:13:41.981Z,52.05
2019-04-30T02:14:42.151Z,63.00
2019-04-30T02:15:43.255Z,80.57
2019-04-30T02:16:42.518Z,61.71
2019-04-30T02:17:42.766Z,77.34
2019-04-30T02:18:42.933Z,65.10
2019-04-30T02:19:54.077Z,65.58
2019-04-30T02:20:45.233Z,62.84
2019-04-30T02:21:43.375Z,78.96
2019-04-30T02:22:44.256Z,65.26
2019-04-30T02:23:43.700Z,65.26
2019-04-30T02:24:43.873Z,63.97
2019-04-30T02:25:44.062Z,82.82
2019-04-30T02:26:44.239Z,63.49
2019-04-30T02:27:44.412Z,65.42
2019-04-30T02:28:44.619Z,76.54
2019-04-30T02:29:44.790Z,78.15
2019-04-30T02:30:44.961Z,62.84
2019-04-30T02:31:45.132Z,76.05
2019-04-30T02:32:45.294Z,71.70
2019-04-30T02:33:45.487Z,65.10
2019-04-30T02:34:45.650Z,83.95
2019-04-30T02:35:45.800Z,59.78
2019-04-30T02:36:45.960Z,76.70
2019-04-30T02:37:46.084Z,61.39
2019-04-30T02:38:46.368Z,60.75
2019-04-30T02:39:46.545Z,78.15
2019-04-30T02:40:49.345Z,61.71
2019-04-30T02:41:46.852Z,79.60
2019-04-30T02:42:49.752Z,63.16
2019-04-30T02:43:49.731Z,76.22
2019-04-30T02:44:50.381Z,74.44
2019-04-30T02:45:49.843Z,62.52
2019-04-30T02:46:50.426Z,80.08
2019-04-30T02:47:50.003Z,80.57
2019-04-30T02:48:50.425Z,72.51
2019-04-30T02:49:50.021Z,66.71
2019-04-30T02:50:50.455Z,75.25
2019-04-30T02:51:49.970Z,61.07
2019-04-30T02:52:50.763Z,64.78
2019-04-30T02:53:50.525Z,76.86
2019-04-30T02:54:50.193Z,79.28
2019-04-30T02:55:49.969Z,69.61
2019-04-30T02:56:50.882Z,69.13
2019-04-30T02:57:50.672Z,85.24
2019-04-30T02:58:50.533Z,79.60
2019-04-30T02:59:51.131Z,78.15
2019-04-30T03:00:50.234Z,79.12
2019-04-30T03:01:50.424Z,78.47
2019-04-30T03:02:50.928Z,77.67
2019-04-30T03:03:50.720Z,79.76
2019-04-30T03:04:50.892Z,74.93
2019-04-30T03:05:51.080Z,76.70
2019-04-30T03:06:51.248Z,63.81
2019-04-30T03:07:53.361Z,79.60
2019-04-30T03:08:52.536Z,78.79
2019-04-30T03:09:51.774Z,80.73
2019-04-30T03:10:52.906Z,81.86
2019-04-30T03:11:53.146Z,80.08
2019-04-30T03:12:52.384Z,81.86
2019-04-30T03:13:52.518Z,81.69
2019-04-30T03:14:53.686Z,81.37
2019-04-30T03:15:53.267Z,83.95
2019-04-30T03:16:53.425Z,76.70
2019-04-30T03:17:54.141Z,80.73
2019-04-30T03:18:53.255Z,79.28
2019-04-30T03:19:53.399Z,78.79
2019-04-30T03:20:53.552Z,79.76
2019-04-30T03:21:53.738Z,74.44
2019-04-30T03:22:53.941Z,77.99
2019-04-30T03:23:54.124Z,79.12
2019-04-30T03:24:54.279Z,82.18
2019-04-30T03:25:54.437Z,77.67
2019-04-30T03:26:54.591Z,87.66
2019-04-30T03:27:54.750Z,81.69
2019-04-30T03:28:54.919Z,81.05
2019-04-30T03:29:55.095Z,82.98
2019-04-30T03:30:57.451Z,81.53
2019-04-30T03:31:56.453Z,81.53
2019-04-30T03:32:57.117Z,79.44
2019-04-30T03:34:01.514Z,81.05
2019-04-30T03:35:02.625Z,80.41
2019-04-30T03:36:01.853Z,82.66
2019-04-30T03:37:01.712Z,92.97
2019-04-30T03:37:59.098Z,80.57
2019-04-30T03:38:56.758Z,80.89
2019-04-30T03:39:56.887Z,82.18
2019-04-30T03:40:59.951Z,79.76
2019-04-30T03:41:59.698Z,78.15
2019-04-30T03:43:02.679Z,77.34
2019-04-30T03:44:16.480Z,77.18
2019-04-30T03:44:59.830Z,79.28
2019-04-30T03:46:02.811Z,78.47
2019-04-30T03:46:59.239Z,76.22
2019-04-30T03:48:00.471Z,82.02
2019-04-30T03:49:00.138Z,76.22
2019-04-30T03:50:00.105Z,81.53
2019-04-30T03:51:01.114Z,77.50
2019-04-30T03:52:00.195Z,78.79
2019-04-30T03:53:00.499Z,76.86
2019-04-30T03:54:00.552Z,80.57
2019-04-30T03:55:02.858Z,79.28
2019-04-30T03:56:01.456Z,80.73
2019-04-30T03:57:01.222Z,76.86
2019-04-30T03:58:00.325Z,82.02
2019-04-30T03:59:00.390Z,79.44
2019-04-30T04:00:00.776Z,83.79
2019-04-30T04:01:00.690Z,77.83
2019-04-30T04:02:01.764Z,73.80
2019-04-30T04:03:01.034Z,78.47
2019-04-30T04:04:01.193Z,80.41
2019-04-30T04:05:01.370Z,73.96
2019-04-30T04:06:01.497Z,81.05
2019-04-30T04:07:01.658Z,82.34
2019-04-30T04:08:01.808Z,78.96
2019-04-30T04:09:01.979Z,79.92
2019-04-30T04:10:02.148Z,81.05
2019-04-30T04:11:02.317Z,78.31
2019-04-30T04:12:02.488Z,78.63
2019-04-30T04:13:02.657Z,83.63
2019-04-30T04:14:02.823Z,76.86
2019-04-30T04:15:04.053Z,77.99
2019-04-30T04:16:04.146Z,81.53
2019-04-30T04:17:03.281Z,80.24
2019-04-30T04:18:03.441Z,79.12
2019-04-30T04:19:03.785Z,81.53
2019-04-30T04:20:04.766Z,79.60
2019-04-30T04:21:11.657Z,76.22
2019-04-30T04:22:06.262Z,81.86
2019-04-30T04:23:04.483Z,75.73
2019-04-30T04:24:04.631Z,82.82
2019-04-30T04:25:04.795Z,76.54
2019-04-30T04:26:04.928Z,82.18
2019-04-30T04:27:05.063Z,82.98
2019-04-30T04:28:05.768Z,78.47
2019-04-30T04:29:05.400Z,80.57
2019-04-30T04:30:05.582Z,80.08
2019-04-30T04:31:09.455Z,80.57
2019-04-30T04:32:05.877Z,80.08
2019-04-30T04:33:05.998Z,81.86
2019-04-30T04:34:06.136Z,78.63
2019-04-30T04:35:06.290Z,72.83
2019-04-30T04:36:06.412Z,77.18
2019-04-30T04:37:10.048Z,74.77
2019-04-30T04:38:06.765Z,81.05
2019-04-30T04:39:09.859Z,79.76
2019-04-30T04:40:09.302Z,76.70
2019-04-30T04:41:10.306Z,79.60
2019-04-30T04:42:10.113Z,82.82
2019-04-30T04:43:10.411Z,76.70
2019-04-30T04:44:12.550Z,81.69
2019-04-30T04:45:09.924Z,79.60
2019-04-30T04:46:09.347Z,78.15
2019-04-30T04:47:09.945Z,74.12
2019-04-30T04:48:09.642Z,80.08
2019-04-30T04:49:09.435Z,80.08
2019-04-30T04:50:10.328Z,78.15
2019-04-30T04:51:27.224Z,80.89
2019-04-30T04:52:11.075Z,78.47
2019-04-30T04:53:11.516Z,78.15
2019-04-30T04:54:10.551Z,78.63
2019-04-30T04:55:10.142Z,77.50
2019-04-30T04:56:10.852Z,79.44
2019-04-30T04:57:17.280Z,77.50
2019-04-30T04:58:12.813Z,78.96
2019-04-30T04:59:11.303Z,77.02
2019-04-30T05:00:10.796Z,77.02
2019-04-30T05:01:12.014Z,80.41
2019-04-30T05:02:11.800Z,78.63
2019-04-30T05:03:11.044Z,76.38
2019-04-30T05:04:11.979Z,76.22
2019-04-30T05:05:12.384Z,78.96
2019-04-30T05:06:11.976Z,80.57
2019-04-30T05:07:12.855Z,80.57
2019-04-30T05:08:11.982Z,77.34
2019-04-30T05:09:12.105Z,79.92
2019-04-30T05:10:12.241Z,78.63
2019-04-30T05:11:12.422Z,80.57
2019-04-30T05:12:12.596Z,80.89
2019-04-30T05:13:12.766Z,78.63
2019-04-30T05:14:12.907Z,78.79
2019-04-30T05:15:13.053Z,82.98
2019-04-30T05:16:13.178Z,77.50
2019-04-30T05:17:13.355Z,77.50
2019-04-30T05:18:13.506Z,82.50
2019-04-30T05:19:13.654Z,77.67
2019-04-30T05:20:13.844Z,81.53
2019-04-30T05:21:13.983Z,78.47
2019-04-30T05:22:14.168Z,78.47
2019-04-30T05:23:14.313Z,82.50
2019-04-30T05:24:14.459Z,84.92
2019-04-30T05:25:14.619Z,79.12
2019-04-30T05:26:14.798Z,81.21
2019-04-30T05:27:15.281Z,80.73
2019-04-30T05:28:15.172Z,79.44
2019-04-30T05:29:15.304Z,79.76
2019-04-30T05:30:15.432Z,78.15
2019-04-30T05:31:15.578Z,79.60
2019-04-30T05:32:15.740Z,79.12
2019-04-30T05:33:15.918Z,83.14
2019-04-30T05:34:16.056Z,77.99
2019-04-30T05:35:16.195Z,83.63
2019-04-30T05:36:16.339Z,81.53
2019-04-30T05:37:18.385Z,81.21
2019-04-30T05:38:18.833Z,79.28
2019-04-30T05:39:18.782Z,74.77
2019-04-30T05:40:18.843Z,79.28
2019-04-30T05:41:19.140Z,79.92
2019-04-30T05:42:18.464Z,83.31
2019-04-30T05:43:19.212Z,76.54
2019-04-30T05:44:18.535Z,77.02
2019-04-30T05:45:19.405Z,80.08
2019-04-30T05:46:19.653Z,79.28
2019-04-30T05:47:19.715Z,79.12
2019-04-30T05:48:19.262Z,77.83
2019-04-30T05:49:20.245Z,79.92
2019-04-30T05:50:20.099Z,77.34
2019-04-30T05:51:21.325Z,77.99
2019-04-30T05:52:19.995Z,91.20
2019-04-30T05:53:20.108Z,78.79
2019-04-30T05:54:19.348Z,79.60
2019-04-30T05:55:19.947Z,78.79
2019-04-30T05:56:21.284Z,82.50
2019-04-30T05:57:19.839Z,81.53
2019-04-30T05:58:21.777Z,82.66
2019-04-30T05:59:20.641Z,75.73
2019-04-30T06:00:21.230Z,77.34
2019-04-30T06:01:20.453Z,79.60
2019-04-30T06:02:21.282Z,78.96
2019-04-30T06:03:28.185Z,78.79
2019-04-30T06:04:23.007Z,75.73
2019-04-30T06:05:21.209Z,78.31
2019-04-30T06:06:22.268Z,78.15
2019-04-30T06:07:21.503Z,78.96
2019-04-30T06:08:22.287Z,86.21
2019-04-30T06:09:31.124Z,77.02
2019-04-30T06:10:23.986Z,76.86
2019-04-30T06:11:23.167Z,77.99
2019-04-30T06:12:22.392Z,78.79
2019-04-30T06:13:22.523Z,79.60
2019-04-30T06:14:22.651Z,76.54
2019-04-30T06:15:23.295Z,79.28
2019-04-30T06:16:23.031Z,81.21
2019-04-30T06:17:23.164Z,76.86
2019-04-30T06:18:23.303Z,78.96
2019-04-30T06:19:23.427Z,78.79
2019-04-30T06:20:23.592Z,78.79
2019-04-30T06:21:23.712Z,76.54
2019-04-30T06:22:23.849Z,83.79
2019-04-30T06:23:23.992Z,79.60
2019-04-30T06:24:24.127Z,77.67
2019-04-30T06:25:31.682Z,76.86
2019-04-30T06:26:26.500Z,79.12
2019-04-30T06:27:24.691Z,77.67
2019-04-30T06:28:24.813Z,94.91
2019-04-30T06:29:24.945Z,80.89
2019-04-30T06:30:25.287Z,76.86
2019-04-30T06:31:32.182Z,79.44
2019-04-30T06:32:26.522Z,78.47
2019-04-30T06:33:25.745Z,82.98
2019-04-30T06:34:25.866Z,77.67
2019-04-30T06:35:26.019Z,78.47
2019-04-30T06:36:26.193Z,74.44
2019-04-30T06:37:26.314Z,77.50
2019-04-30T06:38:26.437Z,78.96
2019-04-30T06:39:28.727Z,79.92
2019-04-30T06:40:26.689Z,77.50
2019-04-30T06:41:27.286Z,78.63
2019-04-30T06:42:27.024Z,78.47
2019-04-30T06:43:28.742Z,80.89
2019-04-30T06:44:37.012Z,76.70
2019-04-30T06:45:29.551Z,76.86
2019-04-30T06:46:28.815Z,80.41
2019-04-30T06:47:33.186Z,84.59
2019-04-30T06:48:30.153Z,78.15
2019-04-30T06:49:29.393Z,79.76
2019-04-30T06:50:29.320Z,83.63
2019-04-30T06:51:30.774Z,77.02
2019-04-30T06:52:29.409Z,81.37
2019-04-30T06:53:30.180Z,79.44
2019-04-30T06:54:29.308Z,81.05
2019-04-30T06:55:30.937Z,78.63
2019-04-30T06:56:29.691Z,73.15
2019-04-30T06:57:29.826Z,80.08
2019-04-30T06:58:30.306Z,81.05
2019-04-30T06:59:30.167Z,77.83
2019-04-30T07:00:33.704Z,78.47
2019-04-30T07:01:31.587Z,71.54
2019-04-30T07:02:31.036Z,81.53
2019-04-30T07:03:32.079Z,82.50
2019-04-30T07:04:31.159Z,74.12
2019-04-30T07:05:31.312Z,81.37
2019-04-30T07:06:36.708Z,76.86
2019-04-30T07:07:38.956Z,86.21
2019-04-30T07:08:39.547Z,77.02
2019-04-30T07:09:48.825Z,77.83
2019-04-30T07:10:34.073Z,80.08
2019-04-30T07:11:32.305Z,81.53
2019-04-30T07:12:34.104Z,77.83
2019-04-30T07:13:33.581Z,79.12
2019-04-30T07:14:33.818Z,79.12
2019-04-30T07:15:33.059Z,78.47
2019-04-30T07:16:33.218Z,76.22
2019-04-30T07:17:33.368Z,77.67
2019-04-30T07:18:33.520Z,84.59
2019-04-30T07:19:50.211Z,78.63
2019-04-30T07:20:35.886Z,77.34
2019-04-30T07:21:36.581Z,80.08
2019-04-30T07:23:38.589Z,77.34
2019-04-30T07:24:34.674Z,77.50
2019-04-30T07:25:34.825Z,77.34
2019-04-30T07:26:35.018Z,81.53
2019-04-30T07:27:35.183Z,76.22
2019-04-30T07:28:44.717Z,77.50
2019-04-30T07:29:39.199Z,78.31
2019-04-30T07:30:35.683Z,76.86
2019-04-30T07:31:35.824Z,78.31
2019-04-30T07:32:35.969Z,81.37
2019-04-30T07:33:36.163Z,79.12
2019-04-30T07:34:37.160Z,76.38
2019-04-30T07:35:39.770Z,76.86
2019-04-30T07:36:48.395Z,79.12
2019-04-30T07:37:39.784Z,75.57
2019-04-30T07:38:45.632Z,75.57
2019-04-30T07:39:39.344Z,75.09
2019-04-30T07:40:39.073Z,83.31
2019-04-30T07:41:40.267Z,79.92
2019-04-30T07:42:44.516Z,101.67
2019-04-30T07:43:40.024Z,80.24
2019-04-30T07:44:39.533Z,77.67
2019-04-30T07:45:40.304Z,76.05
2019-04-30T07:46:43.862Z,75.09
2019-04-30T07:47:40.764Z,76.54
2019-04-30T07:48:40.281Z,81.21
2019-04-30T07:49:49.972Z,77.02
2019-04-30T07:50:41.409Z,77.34
2019-04-30T07:51:41.678Z,78.79
2019-04-30T07:52:57.605Z,80.41
2019-04-30T07:53:42.032Z,68.48
2019-04-30T07:54:40.258Z,79.44
2019-04-30T07:55:40.400Z,78.63
2019-04-30T07:56:41.700Z,84.27
2019-04-30T07:57:41.696Z,76.86
2019-04-30T07:58:40.812Z,76.38
2019-04-30T07:59:40.994Z,75.57
2019-04-30T08:00:41.162Z,77.18
2019-04-30T08:02:00.202Z,79.60
2019-04-30T08:02:43.659Z,76.22
2019-04-30T08:03:42.831Z,80.08
2019-04-30T08:04:41.787Z,76.38
2019-04-30T08:05:42.826Z,78.15
2019-04-30T08:06:42.098Z,75.41
2019-04-30T08:07:42.292Z,78.47
2019-04-30T08:08:42.476Z,77.02
2019-04-30T08:09:36.841Z,80.73
2019-04-30T08:09:42.725Z,79.12
2019-04-30T08:10:42.890Z,77.18
2019-04-30T08:11:43.819Z,78.31
2019-04-30T08:12:45.067Z,78.15
2019-04-30T08:13:43.600Z,76.38
2019-04-30T08:14:43.508Z,76.70
2019-04-30T08:15:43.651Z,80.08
2019-04-30T08:16:43.789Z,76.05
2019-04-30T08:17:44.049Z,78.79
2019-04-30T08:18:44.221Z,77.67
2019-04-30T08:19:44.817Z,76.86
2019-04-30T08:20:44.586Z,78.79
2019-04-30T08:21:44.728Z,77.02
2019-04-30T08:22:44.889Z,75.09
2019-04-30T08:23:45.029Z,78.79
2019-04-30T08:24:45.225Z,75.57
2019-04-30T08:25:45.396Z,78.47
2019-04-30T08:26:45.555Z,76.38
2019-04-30T08:27:45.706Z,77.18
2019-04-30T08:28:45.872Z,76.70
2019-04-30T08:29:46.057Z,76.22
2019-04-30T08:30:46.235Z,75.73
2019-04-30T08:31:48.994Z,78.96
2019-04-30T08:32:46.636Z,76.54
2019-04-30T08:33:48.924Z,77.02
2019-04-30T08:34:47.338Z,76.38
2019-04-30T08:35:47.138Z,79.12
2019-04-30T08:36:48.891Z,78.15
2019-04-30T08:37:49.508Z,78.63
2019-04-30T08:38:49.519Z,75.41
2019-04-30T08:39:49.693Z,79.28
2019-04-30T08:40:56.144Z,83.31
2019-04-30T08:41:50.288Z,77.83
2019-04-30T08:42:49.765Z,78.63
2019-04-30T08:43:49.834Z,75.73
2019-04-30T08:44:49.884Z,80.08
2019-04-30T08:45:49.024Z,77.50
2019-04-30T08:46:49.227Z,74.12
2019-04-30T08:47:50.369Z,76.38
2019-04-30T08:48:51.609Z,79.60
2019-04-30T08:49:50.871Z,76.05
2019-04-30T08:50:50.263Z,76.70
2019-04-30T08:51:50.748Z,76.05
2019-04-30T08:52:51.009Z,77.67
2019-04-30T08:53:50.383Z,78.31
2019-04-30T08:54:50.538Z,81.37
2019-04-30T08:55:50.700Z,77.50
2019-04-30T08:56:50.827Z,77.99
2019-04-30T08:57:50.974Z,77.02
2019-04-30T08:58:51.124Z,76.54
2019-04-30T08:59:51.251Z,74.77
2019-04-30T09:00:51.437Z,78.96
2019-04-30T09:01:51.567Z,78.79
2019-04-30T09:02:51.728Z,76.54
2019-04-30T09:03:51.914Z,80.41
2019-04-30T09:04:52.073Z,78.79
2019-04-30T09:05:52.239Z,84.92
2019-04-30T09:06:53.340Z,81.05
2019-04-30T09:07:52.603Z,76.70
2019-04-30T09:08:52.777Z,76.22
2019-04-30T09:09:52.930Z,78.63
2019-04-30T09:10:53.119Z,75.25
2019-04-30T09:11:55.561Z,82.50
2019-04-30T09:12:54.409Z,76.22
2019-04-30T09:13:53.533Z,81.05
2019-04-30T09:14:53.686Z,74.77
2019-04-30T09:15:53.817Z,84.59
2019-04-30T09:16:54.006Z,78.31
2019-04-30T09:18:03.207Z,80.57
2019-04-30T09:18:56.416Z,74.60
2019-04-30T09:19:54.839Z,78.15
2019-04-30T09:21:03.443Z,77.67
2019-04-30T09:21:55.996Z,77.99
2019-04-30T09:22:55.121Z,86.53
2019-04-30T09:23:55.279Z,78.96
2019-04-30T09:24:55.417Z,79.76
2019-04-30T09:25:55.558Z,77.34
2019-04-30T09:26:55.752Z,76.05
2019-04-30T09:27:55.911Z,76.70
2019-04-30T09:28:56.353Z,75.41
2019-04-30T09:29:56.255Z,75.41
2019-04-30T09:30:58.654Z,77.18
2019-04-30T09:31:56.646Z,77.34
2019-04-30T09:32:56.814Z,75.57
2019-04-30T09:34:00.653Z,74.28
2019-04-30T09:34:58.747Z,76.86
2019-04-30T09:35:59.549Z,75.25
2019-04-30T09:36:58.883Z,76.22
2019-04-30T09:38:01.408Z,76.70
2019-04-30T09:39:01.545Z,76.05
2019-04-30T09:39:59.214Z,78.96
2019-04-30T09:40:59.376Z,79.28
2019-04-30T09:41:59.617Z,77.83
2019-04-30T09:43:00.444Z,73.96
2019-04-30T09:43:59.758Z,76.22
2019-04-30T09:44:59.886Z,76.54
2019-04-30T09:45:59.346Z,82.02
2019-04-30T09:47:00.191Z,77.34
2019-04-30T09:47:59.364Z,84.59
2019-04-30T09:48:59.872Z,76.70
2019-04-30T09:50:00.702Z,79.12
2019-04-30T09:51:01.000Z,76.05
2019-04-30T09:52:01.362Z,78.47
2019-04-30T09:53:01.299Z,81.53
2019-04-30T09:54:03.149Z,77.99
2019-04-30T09:55:02.085Z,73.64
2019-04-30T09:56:00.717Z,75.73
2019-04-30T09:57:00.872Z,79.60
2019-04-30T09:58:01.038Z,77.67
2019-04-30T09:59:01.196Z,78.63
2019-04-30T10:00:01.324Z,74.77
2019-04-30T10:01:01.531Z,76.05
2019-04-30T10:02:01.694Z,75.57
2019-04-30T10:03:02.063Z,78.96
2019-04-30T10:04:02.347Z,79.92
2019-04-30T10:05:02.797Z,76.70
2019-04-30T10:06:02.486Z,70.58
2019-04-30T10:07:03.354Z,78.79
2019-04-30T10:08:02.863Z,83.79
2019-04-30T10:09:03.019Z,77.99
2019-04-30T10:10:03.168Z,73.48
2019-04-30T10:11:03.307Z,78.31
2019-04-30T10:12:03.449Z,77.83
2019-04-30T10:13:03.603Z,77.67
2019-04-30T10:14:03.780Z,76.22
2019-04-30T10:15:03.917Z,75.73
2019-04-30T10:16:04.065Z,76.05
2019-04-30T10:17:04.849Z,78.79
2019-04-30T10:18:04.366Z,72.83
2019-04-30T10:19:04.540Z,74.60
2019-04-30T10:20:04.705Z,75.09
2019-04-30T10:21:05.863Z,76.86
2019-04-30T10:22:05.041Z,78.63
2019-04-30T10:23:05.860Z,80.24
2019-04-30T10:24:14.777Z,77.18
2019-04-30T10:25:09.274Z,80.08
2019-04-30T10:26:05.823Z,76.22
2019-04-30T10:27:10.497Z,80.24
2019-04-30T10:28:10.035Z,76.05
2019-04-30T10:29:06.433Z,79.12
2019-04-30T10:30:06.563Z,74.60
2019-04-30T10:31:06.742Z,82.66
2019-04-30T10:32:08.697Z,77.18
2019-04-30T10:33:07.058Z,72.67
2019-04-30T10:34:07.198Z,74.93
2019-04-30T10:35:07.331Z,76.54
2019-04-30T10:36:09.295Z,75.41
2019-04-30T10:37:09.006Z,80.41
2019-04-30T10:38:09.716Z,76.54
2019-04-30T10:39:08.864Z,77.83
2019-04-30T10:40:10.084Z,78.79
2019-04-30T10:41:08.901Z,75.57
2019-04-30T10:42:09.504Z,78.79
2019-04-30T10:43:09.034Z,76.05
2019-04-30T10:44:09.790Z,77.02
2019-04-30T10:45:09.790Z,77.50
2019-04-30T10:46:10.123Z,76.38
2019-04-30T10:47:09.423Z,77.83
2019-04-30T10:48:10.509Z,76.86
2019-04-30T10:49:09.658Z,78.15
2019-04-30T10:50:10.061Z,75.41
2019-04-30T10:51:11.037Z,77.67
2019-04-30T10:52:10.158Z,80.24
2019-04-30T10:53:12.422Z,75.25
2019-04-30T10:54:23.192Z,80.89
2019-04-30T10:55:12.764Z,77.34
2019-04-30T10:56:11.072Z,76.70
2019-04-30T10:57:11.201Z,74.93
2019-04-30T10:58:11.409Z,81.86
2019-04-30T10:59:11.588Z,77.18
2019-04-30T11:00:12.370Z,84.92
2019-04-30T11:01:11.911Z,90.07
2019-04-30T11:02:12.097Z,75.57
2019-04-30T11:03:19.914Z,81.05
2019-04-30T11:04:14.486Z,74.28
2019-04-30T11:05:12.603Z,77.99
2019-04-30T11:06:13.376Z,77.99
2019-04-30T11:07:12.920Z,77.34
2019-04-30T11:08:13.070Z,76.22
2019-04-30T11:09:13.260Z,76.70
2019-04-30T11:10:14.371Z,87.98
2019-04-30T11:11:13.630Z,74.60
2019-04-30T11:12:13.797Z,76.22
2019-04-30T11:13:13.962Z,81.37
2019-04-30T11:14:14.162Z,77.83
2019-04-30T11:15:14.333Z,80.57
2019-04-30T11:16:15.624Z,78.79
2019-04-30T11:17:15.758Z,76.70
2019-04-30T11:18:14.980Z,77.34
2019-04-30T11:19:15.268Z,77.83
2019-04-30T11:20:15.457Z,78.79
2019-04-30T11:21:15.600Z,76.54
2019-04-30T11:22:15.689Z,74.77
2019-04-30T11:23:15.952Z,74.28
2019-04-30T11:24:16.276Z,78.15
2019-04-30T11:25:16.395Z,77.34
2019-04-30T11:26:16.989Z,79.12
2019-04-30T11:27:17.255Z,75.41
2019-04-30T11:28:17.172Z,77.02
2019-04-30T11:29:17.100Z,77.99
2019-04-30T11:30:21.254Z,77.18
2019-04-30T11:31:19.382Z,79.12
2019-04-30T11:32:17.608Z,79.76
2019-04-30T11:33:17.864Z,84.43
2019-04-30T11:34:17.884Z,76.05
2019-04-30T11:35:20.602Z,77.99
2019-04-30T11:36:19.400Z,75.09
2019-04-30T11:37:19.403Z,77.50
2019-04-30T11:38:20.347Z,76.22
2019-04-30T11:39:19.820Z,74.12
2019-04-30T11:40:31.044Z,74.60
2019-04-30T11:41:30.036Z,77.83
2019-04-30T11:42:21.400Z,80.24
2019-04-30T11:43:20.197Z,75.57
2019-04-30T11:44:30.246Z,78.79
2019-04-30T11:45:22.016Z,78.31
2019-04-30T11:46:20.151Z,77.50
2019-04-30T11:47:20.302Z,77.34
2019-04-30T11:48:20.472Z,79.60
2019-04-30T11:49:21.395Z,76.86
2019-04-30T11:50:20.775Z,86.53
2019-04-30T11:51:20.946Z,87.17
2019-04-30T11:52:21.136Z,78.96
2019-04-30T11:53:27.598Z,75.25
2019-04-30T11:54:23.486Z,74.28
2019-04-30T11:55:21.713Z,75.57
2019-04-30T11:56:21.885Z,76.22
2019-04-30T11:57:23.060Z,78.31
2019-04-30T11:58:22.234Z,77.02
2019-04-30T11:59:22.407Z,77.02
2019-04-30T12:00:22.581Z,77.67
2019-04-30T12:01:22.785Z,79.76
2019-04-30T12:02:22.953Z,74.60
2019-04-30T12:03:23.129Z,72.99
2019-04-30T12:04:23.288Z,78.79
2019-04-30T12:05:23.439Z,79.60
2019-04-30T12:06:23.606Z,76.70
2019-04-30T12:07:23.744Z,76.86
2019-04-30T12:08:26.393Z,76.54
2019-04-30T12:09:24.111Z,78.96
2019-04-30T12:10:24.253Z,78.47
2019-04-30T12:11:24.453Z,77.02
2019-04-30T12:12:24.595Z,77.02
2019-04-30T12:13:24.747Z,78.63
2019-04-30T12:14:24.881Z,77.02
2019-04-30T12:15:25.037Z,78.79
2019-04-30T12:16:25.213Z,74.44
2019-04-30T12:17:25.348Z,79.12
2019-04-30T12:18:25.500Z,80.57
2019-04-30T12:19:25.635Z,76.05
2019-04-30T12:20:25.774Z,79.28
2019-04-30T12:21:25.933Z,87.33
2019-04-30T12:22:26.109Z,78.63
2019-04-30T12:23:26.244Z,99.58
2019-04-30T12:24:26.491Z,76.22
2019-04-30T12:25:26.624Z,75.57
2019-04-30T12:26:28.787Z,77.83
2019-04-30T12:27:28.777Z,82.66
2019-04-30T12:28:27.400Z,80.89
2019-04-30T12:29:29.133Z,77.34
2019-04-30T12:30:28.969Z,77.83
2019-04-30T12:31:29.746Z,78.63
2019-04-30T12:32:29.865Z,77.02
2019-04-30T12:33:27.911Z,78.79
2019-04-30T12:34:28.060Z,75.73
2019-04-30T12:35:28.206Z,76.38
2019-04-30T12:36:28.892Z,76.70
2019-04-30T12:37:29.521Z,77.67
2019-04-30T12:38:29.877Z,78.31
2019-04-30T12:39:30.078Z,76.54
2019-04-30T12:40:32.060Z,80.57
2019-04-30T12:41:30.220Z,74.77
2019-04-30T12:42:29.429Z,76.38
2019-04-30T12:43:29.919Z,82.02
2019-04-30T12:44:29.823Z,74.77
2019-04-30T12:45:29.935Z,77.02
2019-04-30T12:46:30.087Z,75.57
2019-04-30T12:47:30.216Z,77.18
2019-04-30T12:48:30.349Z,74.77
2019-04-30T12:49:30.466Z,76.54
2019-04-30T12:50:30.611Z,80.08
2019-04-30T12:51:30.747Z,78.96
2019-04-30T12:52:30.884Z,79.28
2019-04-30T12:53:31.036Z,78.31
2019-04-30T12:54:31.213Z,76.54